createdAt,value
2022-10-01T00:01:17.035Z,11.82
2022-10-01T00:03:43.934Z,11.75
2022-10-01T00:06:13.901Z,11.72
2022-10-01T00:08:42.848Z,11.70
2022-10-01T00:11:12.602Z,11.65
2022-10-01T00:13:40.188Z,11.65
2022-10-01T00:16:09.001Z,11.58
2022-10-01T00:18:41.746Z,11.56
2022-10-01T00:21:10.667Z,11.56
2022-10-01T00:23:38.506Z,11.55
2022-10-01T00:26:17.454Z,11.53
2022-10-01T00:28:46.887Z,11.45
2022-10-01T00:31:16.037Z,11.40
2022-10-01T00:33:43.278Z,11.43
2022-10-01T00:36:11.727Z,11.50
2022-10-01T00:38:42.895Z,11.54
2022-10-01T00:41:10.588Z,11.48
2022-10-01T00:43:42.632Z,11.43
2022-10-01T00:46:42.447Z,11.36
2022-10-01T00:49:19.173Z,11.38
2022-10-01T00:51:51.183Z,11.45
2022-10-01T00:54:23.964Z,11.51
2022-10-01T00:56:54.217Z,11.47
2022-10-01T00:59:21.599Z,11.44
2022-10-01T01:01:49.168Z,11.42
2022-10-01T01:04:19.198Z,11.39
2022-10-01T01:06:56.050Z,11.40
2022-10-01T01:09:34.108Z,11.46
2022-10-01T01:12:31.658Z,11.50
2022-10-01T01:15:07.831Z,11.51
2022-10-01T01:17:48.417Z,11.41
2022-10-01T01:20:47.385Z,11.37
2022-10-01T01:23:16.833Z,11.40
2022-10-01T01:26:21.880Z,11.45
2022-10-01T01:28:56.092Z,11.51
2022-10-01T01:31:29.639Z,11.52
2022-10-01T01:34:00.379Z,11.55
2022-10-01T01:36:32.955Z,11.58
2022-10-01T01:39:04.393Z,11.60
2022-10-01T01:41:35.750Z,11.63
2022-10-01T01:44:07.086Z,11.68
2022-10-01T01:46:36.357Z,11.70
2022-10-01T01:49:05.518Z,11.66
2022-10-01T01:51:40.424Z,11.62
2022-10-01T01:54:08.546Z,11.66
2022-10-01T01:56:35.929Z,11.62
2022-10-01T01:59:04.029Z,11.53
2022-10-01T02:01:40.364Z,11.49
2022-10-01T02:04:12.077Z,11.54
2022-10-01T02:07:06.874Z,11.59
2022-10-01T02:10:12.644Z,11.53
2022-10-01T02:12:55.105Z,11.33
2022-10-01T02:15:36.316Z,11.30
2022-10-01T02:18:18.865Z,11.26
2022-10-01T02:20:50.868Z,11.25
2022-10-01T02:23:26.135Z,11.22
2022-10-01T02:25:58.597Z,11.15
2022-10-01T02:28:26.331Z,11.12
2022-10-01T02:30:56.276Z,11.01
2022-10-01T02:33:32.159Z,10.93
2022-10-01T02:36:01.513Z,10.90
2022-10-01T02:38:29.966Z,10.87
2022-10-01T02:41:01.257Z,10.87
2022-10-01T02:43:43.313Z,10.89
2022-10-01T02:46:22.158Z,10.92
2022-10-01T02:48:51.561Z,10.95
2022-10-01T02:51:18.306Z,11.02
2022-10-01T02:53:49.583Z,11.09
2022-10-01T02:56:48.631Z,11.18
2022-10-01T02:59:15.847Z,11.24
2022-10-01T03:01:42.927Z,11.29
2022-10-01T03:04:09.802Z,11.32
2022-10-01T03:06:36.792Z,11.35
2022-10-01T03:09:03.896Z,11.36
2022-10-01T03:11:31.055Z,11.42
2022-10-01T03:13:58.498Z,11.44
2022-10-01T03:16:25.583Z,11.44
2022-10-01T03:18:52.495Z,11.42
2022-10-01T03:21:19.386Z,11.40
2022-10-01T03:23:46.269Z,11.37
2022-10-01T03:26:13.108Z,11.38
2022-10-01T03:28:39.905Z,11.42
2022-10-01T03:31:11.587Z,11.45
2022-10-01T03:33:38.588Z,11.49
2022-10-01T03:36:05.508Z,11.48
2022-10-01T03:38:32.379Z,11.46
2022-10-01T03:40:59.202Z,11.45
2022-10-01T03:43:29.141Z,11.43
2022-10-01T03:45:56.986Z,11.41
2022-10-01T03:48:24.761Z,11.43
2022-10-01T03:50:59.784Z,11.37
2022-10-01T03:53:28.286Z,11.29
2022-10-01T03:55:56.335Z,11.26
2022-10-01T03:58:23.719Z,11.19
2022-10-01T04:00:51.332Z,11.19
2022-10-01T04:03:18.802Z,11.12
2022-10-01T04:05:46.290Z,10.94
2022-10-01T04:08:14.031Z,10.81
2022-10-01T04:10:42.117Z,10.75
2022-10-01T04:13:09.768Z,10.73
2022-10-01T04:15:36.916Z,10.68
2022-10-01T04:18:06.286Z,10.66
2022-10-01T04:20:38.402Z,10.65
2022-10-01T04:23:05.943Z,10.62
2022-10-01T04:25:32.902Z,10.64
2022-10-01T04:28:02.636Z,10.55
2022-10-01T04:30:33.576Z,10.48
2022-10-01T04:33:00.887Z,10.48
2022-10-01T04:35:28.307Z,10.51
2022-10-01T04:38:02.122Z,10.51
2022-10-01T04:40:30.409Z,10.54
2022-10-01T04:42:57.665Z,10.55
2022-10-01T04:45:24.595Z,10.55
2022-10-01T04:47:54.223Z,10.55
2022-10-01T04:50:23.716Z,10.55
2022-10-01T04:52:51.574Z,10.56
2022-10-01T04:55:20.635Z,10.55
2022-10-01T04:57:48.329Z,10.55
2022-10-01T05:00:19.378Z,10.55
2022-10-01T05:02:48.308Z,10.54
2022-10-01T05:05:17.518Z,10.53
2022-10-01T05:07:44.815Z,10.51
2022-10-01T05:10:20.077Z,10.50
2022-10-01T05:12:47.844Z,10.50
2022-10-01T05:15:16.730Z,10.50
2022-10-01T05:17:44.073Z,10.48
2022-10-01T05:20:16.958Z,10.48
2022-10-01T05:22:45.246Z,10.47
2022-10-01T05:25:12.173Z,10.42
2022-10-01T05:27:40.593Z,10.44
2022-10-01T05:30:09.806Z,10.47
2022-10-01T05:32:37.943Z,10.50
2022-10-01T05:35:08.870Z,10.50
2022-10-01T05:37:36.157Z,10.53
2022-10-01T05:40:03.223Z,10.43
2022-10-01T05:42:30.158Z,10.29
2022-10-01T05:44:57.181Z,10.26
2022-10-01T05:47:24.147Z,10.28
2022-10-01T05:49:50.995Z,10.37
2022-10-01T05:52:18.039Z,10.45
2022-10-01T05:54:44.909Z,10.48
2022-10-01T05:57:11.863Z,10.46
2022-10-01T05:59:38.725Z,10.38
2022-10-01T06:02:05.817Z,10.37
2022-10-01T06:04:34.749Z,10.40
2022-10-01T06:07:04.348Z,10.40
2022-10-01T06:09:31.484Z,10.42
2022-10-01T06:12:01.181Z,10.47
2022-10-01T06:14:28.411Z,10.48
2022-10-01T06:19:57.747Z,10.63
2022-10-01T06:22:25.092Z,10.74
2022-10-01T06:24:56.494Z,10.86
2022-10-01T06:27:24.636Z,10.96
2022-10-01T06:29:51.777Z,11.01
2022-10-01T06:32:20.216Z,11.00
2022-10-01T06:35:08.997Z,11.03
2022-10-01T06:37:39.430Z,11.01
2022-10-01T06:40:07.612Z,11.05
2022-10-01T06:42:34.767Z,11.11
2022-10-01T06:45:01.700Z,11.13
2022-10-01T06:47:28.921Z,11.17
2022-10-01T06:49:55.742Z,11.18
2022-10-01T06:52:41.180Z,11.21
2022-10-01T06:55:13.093Z,11.29
2022-10-01T06:57:43.037Z,11.35
2022-10-01T07:00:11.321Z,11.43
2022-10-01T07:02:38.933Z,11.45
2022-10-01T07:05:07.571Z,11.45
2022-10-01T07:07:38.665Z,11.45
2022-10-01T07:10:07.701Z,11.50
2022-10-01T07:12:36.088Z,11.56
2022-10-01T07:15:03.212Z,11.55
2022-10-01T07:17:49.768Z,11.61
2022-10-01T07:20:18.825Z,11.73
2022-10-01T07:22:47.697Z,11.83
2022-10-01T07:25:15.463Z,11.91
2022-10-01T07:27:42.423Z,11.98
2022-10-01T07:30:10.005Z,12.00
2022-10-01T07:32:37.149Z,12.03
2022-10-01T07:35:06.167Z,12.06
2022-10-01T07:37:33.209Z,12.07
2022-10-01T07:40:03.058Z,12.08
2022-10-01T07:42:33.617Z,12.11
2022-10-01T07:45:00.666Z,12.12
2022-10-01T07:47:27.633Z,12.16
2022-10-01T07:49:54.579Z,12.18
2022-10-01T07:52:21.499Z,12.26
2022-10-01T07:54:48.813Z,12.38
2022-10-01T07:57:15.802Z,12.47
2022-10-01T07:59:43.112Z,12.53
2022-10-01T08:02:17.832Z,12.62
2022-10-01T08:05:03.713Z,12.68
2022-10-01T08:07:32.184Z,12.68
2022-10-01T08:10:00.012Z,12.64
2022-10-01T08:12:29.128Z,12.70
2022-10-01T08:14:56.302Z,12.80
2022-10-01T08:17:27.254Z,12.91
2022-10-01T08:19:56.736Z,13.02
2022-10-01T08:22:23.765Z,13.08
2022-10-01T08:24:50.554Z,13.14
2022-10-01T08:27:17.311Z,13.24
2022-10-01T08:29:44.099Z,13.38
2022-10-01T08:32:11.395Z,13.54
2022-10-01T08:34:38.340Z,13.62
2022-10-01T08:37:05.587Z,13.71
2022-10-01T08:39:32.493Z,13.83
2022-10-01T08:42:36.754Z,13.89
2022-10-01T08:45:12.811Z,13.99
2022-10-01T08:47:44.317Z,14.01
2022-10-01T08:50:49.716Z,14.00
2022-10-01T08:53:39.987Z,14.04
2022-10-01T08:56:18.056Z,14.04
2022-10-01T08:58:50.454Z,14.02
2022-10-01T09:01:17.418Z,14.03
2022-10-01T09:03:44.336Z,14.10
2022-10-01T09:06:28.565Z,14.12
2022-10-01T09:09:07.378Z,14.13
2022-10-01T09:11:58.903Z,14.09
2022-10-01T09:14:36.070Z,14.09
2022-10-01T09:17:22.004Z,14.07
2022-10-01T09:19:59.186Z,14.07
2022-10-01T09:22:39.398Z,14.05
2022-10-01T09:25:27.890Z,13.94
2022-10-01T09:28:07.585Z,13.89
2022-10-01T09:30:36.719Z,13.88
2022-10-01T09:33:15.652Z,13.84
2022-10-01T09:36:05.277Z,13.73
2022-10-01T09:38:48.477Z,13.59
2022-10-01T09:41:16.330Z,13.51
2022-10-01T09:43:44.093Z,13.43
2022-10-01T09:46:17.250Z,13.43
2022-10-01T09:49:09.571Z,13.42
2022-10-01T09:51:42.944Z,13.35
2022-10-01T09:54:17.811Z,13.24
2022-10-01T09:57:20.007Z,13.21
2022-10-01T10:00:18.781Z,13.27
2022-10-01T10:02:49.556Z,13.26
2022-10-01T10:05:19.806Z,13.26
2022-10-01T10:07:58.995Z,13.21
2022-10-01T10:10:35.941Z,13.29
2022-10-01T10:13:17.499Z,13.35
2022-10-01T10:15:52.378Z,13.47
2022-10-01T10:18:29.990Z,13.51
2022-10-01T10:20:59.496Z,13.55
2022-10-01T10:23:26.992Z,13.59
2022-10-01T10:26:02.989Z,13.55
2022-10-01T10:28:42.121Z,13.48
2022-10-01T10:31:16.304Z,13.39
2022-10-01T10:34:16.513Z,13.33
2022-10-01T10:36:46.009Z,13.25
2022-10-01T10:39:29.491Z,13.26
2022-10-01T10:41:58.723Z,13.26
2022-10-01T10:44:35.326Z,13.25
2022-10-01T10:47:07.495Z,13.23
2022-10-01T10:49:44.010Z,13.22
2022-10-01T10:52:29.205Z,13.14
2022-10-01T10:54:58.043Z,13.12
2022-10-01T10:57:28.177Z,13.11
2022-10-01T10:59:59.752Z,13.19
2022-10-01T11:02:32.185Z,13.26
2022-10-01T11:05:20.775Z,13.30
2022-10-01T11:07:51.355Z,13.34
2022-10-01T11:10:31.220Z,13.40
2022-10-01T11:13:18.696Z,13.32
2022-10-01T11:16:05.802Z,13.28
2022-10-01T11:18:56.675Z,13.31
2022-10-01T11:21:29.223Z,13.30
2022-10-01T11:24:33.379Z,13.30
2022-10-01T11:27:07.026Z,13.25
2022-10-01T11:29:43.654Z,13.19
2022-10-01T11:32:48.016Z,13.27
2022-10-01T11:35:27.203Z,13.47
2022-10-01T11:38:27.494Z,13.64
2022-10-01T11:41:07.045Z,13.83
2022-10-01T11:43:41.029Z,13.90
2022-10-01T11:46:14.365Z,13.99
2022-10-01T11:48:45.065Z,14.20
2022-10-01T11:51:18.294Z,14.55
2022-10-01T11:53:54.772Z,15.06
2022-10-01T11:56:46.458Z,15.70
2022-10-01T11:59:34.750Z,16.02
2022-10-01T12:02:28.377Z,16.28
2022-10-01T12:04:55.866Z,16.13
2022-10-01T12:07:28.249Z,15.97
2022-10-01T12:09:54.998Z,15.92
2022-10-01T12:12:42.623Z,15.81
2022-10-01T12:15:19.143Z,15.93
2022-10-01T12:17:54.338Z,16.13
2022-10-01T12:20:30.749Z,16.41
2022-10-01T12:23:00.868Z,16.63
2022-10-01T12:25:40.059Z,16.71
2022-10-01T12:28:13.667Z,16.61
2022-10-01T12:31:06.384Z,16.54
2022-10-01T12:34:02.173Z,16.55
2022-10-01T12:36:38.228Z,17.03
2022-10-01T12:39:42.207Z,17.27
2022-10-01T12:43:06.353Z,17.32
2022-10-01T12:46:06.799Z,17.58
2022-10-01T12:48:55.011Z,17.81
2022-10-01T12:51:31.280Z,17.77
2022-10-01T12:54:24.689Z,17.59
2022-10-01T12:57:01.888Z,17.45
2022-10-01T12:59:35.938Z,17.35
2022-10-01T13:02:42.033Z,17.24
2022-10-01T13:05:50.147Z,16.96
2022-10-01T13:08:58.486Z,16.69
2022-10-01T13:11:57.373Z,16.50
2022-10-01T13:14:25.828Z,16.24
2022-10-01T13:17:09.818Z,16.09
2022-10-01T13:20:18.198Z,15.86
2022-10-01T13:22:57.170Z,15.59
2022-10-01T13:25:45.736Z,15.50
2022-10-01T13:28:17.750Z,15.46
2022-10-01T13:30:53.334Z,15.44
2022-10-01T13:33:24.813Z,15.40
2022-10-01T13:35:58.707Z,15.38
2022-10-01T13:38:39.523Z,15.38
2022-10-01T13:41:31.239Z,15.34
2022-10-01T13:44:04.908Z,15.26
2022-10-01T13:46:36.113Z,15.19
2022-10-01T13:49:17.784Z,15.06
2022-10-01T13:51:46.248Z,14.91
2022-10-01T13:54:28.769Z,14.79
2022-10-01T13:56:55.769Z,14.73
2022-10-01T13:59:34.637Z,14.64
2022-10-01T14:02:03.471Z,14.62
2022-10-01T14:04:40.364Z,14.60
2022-10-01T14:07:18.168Z,14.57
2022-10-01T14:09:50.141Z,14.56
2022-10-01T14:12:52.604Z,14.57
2022-10-01T14:15:44.790Z,14.56
2022-10-01T14:18:23.624Z,14.44
2022-10-01T14:21:17.990Z,14.36
2022-10-01T14:24:01.763Z,14.33
2022-10-01T14:26:43.495Z,14.26
2022-10-01T14:29:34.925Z,14.22
2022-10-01T14:32:23.515Z,14.20
2022-10-01T14:35:20.846Z,14.21
2022-10-01T14:37:48.029Z,14.21
2022-10-01T14:40:21.907Z,14.21
2022-10-01T14:43:02.540Z,14.22
2022-10-01T14:45:30.449Z,14.20
2022-10-01T14:48:02.467Z,14.21
2022-10-01T14:50:32.929Z,14.18
2022-10-01T14:52:59.862Z,14.20
2022-10-01T14:55:27.885Z,14.22
2022-10-01T14:57:56.445Z,14.22
2022-10-01T15:00:26.522Z,14.16
2022-10-01T15:03:03.641Z,14.10
2022-10-01T15:05:33.771Z,14.08
2022-10-01T15:08:13.886Z,14.06
2022-10-01T15:10:45.864Z,14.07
2022-10-01T15:13:34.011Z,14.07
2022-10-01T15:16:02.169Z,14.04
2022-10-01T15:18:30.078Z,14.04
2022-10-01T15:21:02.749Z,14.06
2022-10-01T15:23:30.920Z,14.04
2022-10-01T15:26:00.791Z,14.03
2022-10-01T15:28:33.607Z,13.96
2022-10-01T15:31:06.842Z,13.87
2022-10-01T15:33:40.710Z,13.74
2022-10-01T15:36:18.053Z,13.64
2022-10-01T15:38:49.137Z,13.59
2022-10-01T15:41:32.542Z,13.56
2022-10-01T15:44:03.787Z,13.50
2022-10-01T15:46:35.103Z,13.47
2022-10-01T15:49:17.433Z,13.48
2022-10-01T15:52:11.732Z,13.47
2022-10-01T15:54:41.979Z,13.46
2022-10-01T15:57:10.460Z,13.47
2022-10-01T15:59:41.049Z,13.46
2022-10-01T16:02:14.538Z,13.45
2022-10-01T16:04:41.745Z,13.40
2022-10-01T16:07:20.096Z,13.35
2022-10-01T16:09:56.930Z,13.34
2022-10-01T16:12:23.881Z,13.33
2022-10-01T16:14:58.069Z,13.29
2022-10-01T16:17:35.393Z,13.28
2022-10-01T16:20:14.570Z,13.29
2022-10-01T16:22:42.474Z,13.30
2022-10-01T16:25:19.877Z,13.28
2022-10-01T16:27:56.456Z,13.24
2022-10-01T16:30:27.810Z,13.20
2022-10-01T16:32:56.231Z,13.18
2022-10-01T16:35:24.625Z,13.19
2022-10-01T16:37:55.121Z,13.19
2022-10-01T16:40:27.388Z,13.22
2022-10-01T16:42:54.720Z,13.22
2022-10-01T16:45:27.836Z,13.22
2022-10-01T16:47:59.223Z,13.21
2022-10-01T16:50:26.462Z,13.19
2022-10-01T16:52:55.713Z,13.20
2022-10-01T16:55:25.811Z,13.21
2022-10-01T16:57:54.780Z,13.21
2022-10-01T17:00:24.643Z,13.13
2022-10-01T17:02:52.610Z,13.14
2022-10-01T17:05:25.636Z,13.11
2022-10-01T17:07:54.019Z,13.08
2022-10-01T17:10:23.704Z,13.08
2022-10-01T17:12:51.548Z,13.07
2022-10-01T17:15:23.426Z,13.07
2022-10-01T17:17:50.198Z,13.05
2022-10-01T17:20:17.199Z,13.02
2022-10-01T17:22:44.213Z,13.02
2022-10-01T17:25:15.801Z,13.04
2022-10-01T17:27:42.928Z,13.02
2022-10-01T17:30:10.130Z,13.01
2022-10-01T17:32:39.890Z,12.99
2022-10-01T17:35:07.787Z,12.98
2022-10-01T17:37:35.039Z,12.98
2022-10-01T17:40:02.478Z,12.98
2022-10-01T17:42:31.065Z,13.03
2022-10-01T17:44:58.153Z,13.03
2022-10-01T17:47:25.110Z,13.05
2022-10-01T17:49:51.948Z,13.06
2022-10-01T17:52:19.156Z,12.99
2022-10-01T17:54:46.410Z,12.95
2022-10-01T17:57:14.053Z,12.87
2022-10-01T17:59:41.035Z,12.85
2022-10-01T18:02:29.666Z,12.87
2022-10-01T18:04:56.455Z,12.90
2022-10-01T18:07:27.525Z,12.90
2022-10-01T18:09:54.630Z,12.88
2022-10-01T18:12:21.684Z,12.83
2022-10-01T18:14:50.030Z,12.82
2022-10-01T18:17:17.456Z,12.83
2022-10-01T18:22:32.207Z,12.85
2022-10-01T18:24:59.103Z,12.86
2022-10-01T18:27:26.186Z,12.87
2022-10-01T18:29:53.214Z,12.90
2022-10-01T18:32:23.675Z,12.91
2022-10-01T18:34:54.511Z,12.90
2022-10-01T18:37:21.261Z,12.88
2022-10-01T18:39:56.043Z,12.86
2022-10-01T18:42:55.340Z,12.85
2022-10-01T18:46:04.286Z,12.85
2022-10-01T18:48:49.902Z,12.87
2022-10-01T18:51:21.327Z,12.86
2022-10-01T18:53:58.575Z,12.86
2022-10-01T18:56:33.706Z,12.86
2022-10-01T18:59:22.456Z,12.85
2022-10-01T19:02:04.694Z,12.82
2022-10-01T19:04:45.946Z,12.80
2022-10-01T19:07:37.370Z,12.79
2022-10-01T19:10:41.743Z,12.77
2022-10-01T19:13:28.324Z,12.76
2022-10-01T19:16:19.438Z,12.75
2022-10-01T19:19:04.399Z,12.74
2022-10-01T19:21:49.578Z,12.77
2022-10-01T19:24:59.480Z,12.81
2022-10-01T19:28:26.300Z,12.85
2022-10-01T19:31:23.697Z,12.88
2022-10-01T19:33:56.730Z,12.90
2022-10-01T19:36:37.677Z,12.88
2022-10-01T19:39:11.028Z,12.87
2022-10-01T19:41:51.938Z,12.87
2022-10-01T19:44:45.033Z,12.89
2022-10-01T19:47:44.006Z,12.91
2022-10-01T19:50:29.300Z,12.92
2022-10-01T19:52:58.666Z,12.87
2022-10-01T19:55:33.991Z,12.84
2022-10-01T19:58:21.630Z,12.81
2022-10-01T20:00:54.650Z,12.85
2022-10-01T20:03:34.860Z,12.88
2022-10-01T20:06:20.557Z,12.92
2022-10-01T20:08:56.091Z,12.91
2022-10-01T20:11:36.494Z,12.90
2022-10-01T20:14:36.386Z,12.90
2022-10-01T20:17:24.473Z,12.91
2022-10-01T20:20:13.349Z,12.93
2022-10-01T20:22:58.704Z,12.96
2022-10-01T20:25:25.751Z,12.97
2022-10-01T20:28:19.412Z,12.96
2022-10-01T20:31:00.749Z,12.90
2022-10-01T20:34:06.528Z,12.82
2022-10-01T20:37:10.279Z,12.75
2022-10-01T20:39:44.279Z,12.72
2022-10-01T20:42:18.304Z,12.69
2022-10-01T20:44:46.437Z,12.68
2022-10-01T20:47:23.932Z,12.71
2022-10-01T20:50:09.177Z,12.73
2022-10-01T20:53:08.720Z,12.72
2022-10-01T20:55:46.155Z,12.72
2022-10-01T20:58:22.389Z,12.72
2022-10-01T21:00:54.593Z,12.71
2022-10-01T21:03:27.898Z,12.62
2022-10-01T21:06:15.884Z,12.58
2022-10-01T21:08:57.632Z,12.54
2022-10-01T21:11:33.869Z,12.51
2022-10-01T21:14:41.700Z,12.50
2022-10-01T21:17:34.515Z,12.44
2022-10-01T21:20:21.819Z,12.38
2022-10-01T21:22:57.784Z,12.37
2022-10-01T21:25:42.087Z,12.29
2022-10-01T21:28:31.473Z,12.19
2022-10-01T21:31:17.311Z,12.09
2022-10-01T21:34:03.306Z,12.08
2022-10-01T21:37:16.314Z,12.05
2022-10-01T21:40:08.160Z,12.01
2022-10-01T21:42:53.363Z,11.93
2022-10-01T21:46:00.476Z,11.82
2022-10-01T21:49:01.099Z,11.74
2022-10-01T21:51:49.378Z,11.74
2022-10-01T21:54:51.484Z,11.70
2022-10-01T21:57:27.484Z,11.67
2022-10-01T22:00:20.216Z,11.64
2022-10-01T22:03:12.082Z,11.66
2022-10-01T22:06:13.095Z,11.68
2022-10-01T22:08:52.144Z,11.71
2022-10-01T22:11:23.558Z,11.74
2022-10-01T22:14:00.442Z,11.78
2022-10-01T22:16:35.380Z,11.75
2022-10-01T22:19:16.718Z,11.65
2022-10-01T22:21:48.530Z,11.61
2022-10-01T22:24:22.416Z,11.57
2022-10-01T22:27:11.688Z,11.55
2022-10-01T22:29:43.556Z,11.52
2022-10-01T22:32:14.206Z,11.51
2022-10-01T22:34:48.328Z,11.49
2022-10-01T22:37:23.437Z,11.48
2022-10-01T22:40:05.351Z,11.46
2022-10-01T22:42:41.221Z,11.46
2022-10-01T22:45:16.897Z,11.48
2022-10-01T22:47:58.887Z,11.46
2022-10-01T22:50:34.309Z,11.43
2022-10-01T22:53:24.183Z,11.35
2022-10-01T22:55:55.146Z,11.27
2022-10-01T22:58:37.026Z,11.25
2022-10-01T23:01:09.438Z,11.25
2022-10-01T23:04:14.204Z,11.23
2022-10-01T23:07:07.665Z,11.21
2022-10-01T23:10:04.496Z,11.19
2022-10-01T23:12:47.280Z,11.15
2022-10-01T23:15:43.655Z,11.11
2022-10-01T23:18:41.067Z,11.17
2022-10-01T23:21:29.044Z,11.07
2022-10-01T23:24:05.833Z,10.98
2022-10-01T23:26:44.980Z,10.97
2022-10-01T23:29:49.306Z,10.95
2022-10-01T23:32:34.706Z,10.91
2022-10-01T23:35:13.789Z,10.91
2022-10-01T23:38:04.398Z,10.86
2022-10-01T23:40:44.548Z,10.85
2022-10-01T23:43:36.205Z,10.83
2022-10-01T23:46:15.893Z,10.86
2022-10-01T23:48:46.867Z,10.92
2022-10-01T23:51:25.928Z,10.94
2022-10-01T23:54:03.198Z,10.99
2022-10-01T23:56:48.866Z,10.99
2022-10-01T23:59:37.636Z,10.96
